createdAt,value
2019-05-12T00:00:39.452Z,8.70
2019-05-12T00:03:08.837Z,8.80
2019-05-12T00:05:38.398Z,8.90
2019-05-12T00:08:08.276Z,8.90
2019-05-12T00:10:38.776Z,8.90
2019-05-12T00:13:08.527Z,9.00
2019-05-12T00:15:39.302Z,8.90
2019-05-12T00:18:09.046Z,8.90
2019-05-12T00:20:38.854Z,9.00
2019-05-12T00:23:23.198Z,9.00
2019-05-12T00:25:38.974Z,9.10
2019-05-12T00:28:08.202Z,9.20
2019-05-12T00:30:39.195Z,9.10
2019-05-12T00:33:09.332Z,9.10
2019-05-12T00:35:39.212Z,9.10
2019-05-12T00:38:09.349Z,9.00
2019-05-12T00:40:39.928Z,9.00
2019-05-12T00:43:09.894Z,9.00
2019-05-12T00:45:40.673Z,9.00
2019-05-12T00:48:10.990Z,8.90
2019-05-12T00:50:40.143Z,8.90
2019-05-12T00:53:09.577Z,8.90
2019-05-12T00:55:38.933Z,8.90
2019-05-12T00:58:09.278Z,8.80
2019-05-12T01:00:40.478Z,8.80
2019-05-12T01:03:09.538Z,8.80
2019-05-12T01:05:38.864Z,8.90
2019-05-12T01:08:08.875Z,8.90
2019-05-12T01:10:39.329Z,8.80
2019-05-12T01:13:09.012Z,8.80
2019-05-12T01:15:38.602Z,8.80
2019-05-12T01:18:09.418Z,8.70
2019-05-12T01:20:39.779Z,8.80
2019-05-12T01:23:09.097Z,8.70
2019-05-12T01:25:39.728Z,8.60
2019-05-12T01:28:09.207Z,8.60
2019-05-12T01:30:39.158Z,8.60
2019-05-12T01:33:09.031Z,8.60
2019-05-12T01:35:39.218Z,8.60
2019-05-12T01:38:08.570Z,8.60
2019-05-12T01:40:39.497Z,8.60
2019-05-12T01:43:09.073Z,8.60
2019-05-12T01:45:39.471Z,8.60
2019-05-12T01:48:09.682Z,8.60
2019-05-12T01:50:39.204Z,8.60
2019-05-12T01:53:08.771Z,8.60
2019-05-12T01:55:39.326Z,8.60
2019-05-12T01:58:09.042Z,8.60
2019-05-12T02:00:38.979Z,8.50
2019-05-12T02:03:09.489Z,8.50
2019-05-12T02:05:40.591Z,8.50
2019-05-12T02:08:11.367Z,8.50
2019-05-12T02:10:40.561Z,8.50
2019-05-12T02:13:10.788Z,8.40
2019-05-12T02:15:40.015Z,8.30
2019-05-12T02:18:09.401Z,8.30
2019-05-12T02:20:39.787Z,8.30
2019-05-12T02:23:09.275Z,8.30
2019-05-12T02:25:38.504Z,8.30
2019-05-12T02:28:09.245Z,8.30
2019-05-12T02:30:41.542Z,8.30
2019-05-12T02:33:09.631Z,8.30
2019-05-12T02:35:38.847Z,8.30
2019-05-12T02:38:09.068Z,8.20
2019-05-12T02:40:38.209Z,8.10
2019-05-12T02:43:07.364Z,8.10
2019-05-12T02:45:36.496Z,8.10
2019-05-12T02:48:05.955Z,8.10
2019-05-12T02:50:36.669Z,8.10
2019-05-12T02:53:06.645Z,8.10
2019-05-12T02:55:36.235Z,8.00
2019-05-12T02:58:06.339Z,8.00
2019-05-12T03:00:36.701Z,8.00
2019-05-12T03:03:06.092Z,8.00
2019-05-12T03:05:35.482Z,7.90
2019-05-12T03:08:06.312Z,7.90
2019-05-12T03:10:36.125Z,7.80
2019-05-12T03:13:05.502Z,7.80
2019-05-12T03:15:37.171Z,7.90
2019-05-12T03:18:06.778Z,7.80
2019-05-12T03:20:36.464Z,7.70
2019-05-12T03:23:06.752Z,7.70
2019-05-12T03:25:37.091Z,7.70
2019-05-12T03:28:08.433Z,7.70
2019-05-12T03:30:39.917Z,7.70
2019-05-12T03:33:10.836Z,7.70
2019-05-12T03:35:43.585Z,7.80
2019-05-12T03:38:10.010Z,7.80
2019-05-12T03:40:39.186Z,7.90
2019-05-12T03:43:08.417Z,7.80
2019-05-12T03:45:37.643Z,7.70
2019-05-12T03:48:06.888Z,7.70
2019-05-12T03:50:36.495Z,7.60
2019-05-12T03:53:10.223Z,7.50
2019-05-12T03:55:41.999Z,7.60
2019-05-12T03:58:07.583Z,7.60
2019-05-12T04:00:36.790Z,7.60
2019-05-12T04:03:06.290Z,7.50
2019-05-12T04:05:36.725Z,7.60
2019-05-12T04:08:06.515Z,7.60
2019-05-12T04:10:36.933Z,7.50
2019-05-12T04:13:06.425Z,7.60
2019-05-12T04:15:35.944Z,7.60
2019-05-12T04:18:06.369Z,7.50
2019-05-12T04:20:36.517Z,7.40
2019-05-12T04:23:06.933Z,7.40
2019-05-12T04:25:51.209Z,7.50
2019-05-12T04:28:07.334Z,7.50
2019-05-12T04:30:36.557Z,7.40
2019-05-12T04:33:06.021Z,7.50
2019-05-12T04:35:35.945Z,7.50
2019-05-12T04:38:05.604Z,7.50
2019-05-12T04:40:36.285Z,7.50
2019-05-12T04:43:06.586Z,7.50
2019-05-12T04:45:36.167Z,7.40
2019-05-12T04:48:06.291Z,7.30
2019-05-12T04:50:36.453Z,7.30
2019-05-12T04:53:06.745Z,7.30
2019-05-12T04:55:36.801Z,7.30
2019-05-12T04:58:06.405Z,7.30
2019-05-12T05:00:36.193Z,7.30
2019-05-12T05:03:06.089Z,7.30
2019-05-12T05:05:36.251Z,7.30
2019-05-12T05:08:05.850Z,7.40
2019-05-12T05:10:35.195Z,7.40
2019-05-12T05:13:05.472Z,7.40
2019-05-12T05:15:35.482Z,7.40
2019-05-12T05:18:06.755Z,7.30
2019-05-12T05:20:35.719Z,7.30
2019-05-12T05:23:05.071Z,7.30
2019-05-12T05:25:35.222Z,7.30
2019-05-12T05:28:04.931Z,7.30
2019-05-12T05:30:34.438Z,7.30
2019-05-12T05:33:04.907Z,7.20
2019-05-12T05:35:39.416Z,7.20
2019-05-12T05:38:05.933Z,7.10
2019-05-12T05:40:35.998Z,7.10
2019-05-12T05:43:12.381Z,7.00
2019-05-12T05:45:36.313Z,7.10
2019-05-12T05:48:09.801Z,7.10
2019-05-12T05:50:36.419Z,7.10
2019-05-12T05:53:09.247Z,7.00
2019-05-12T05:55:36.423Z,7.00
2019-05-12T05:58:10.118Z,6.90
2019-05-12T06:00:39.387Z,7.00
2019-05-12T06:03:14.948Z,7.00
2019-05-12T06:05:38.848Z,7.10
2019-05-12T06:08:16.589Z,7.20
2019-05-12T06:10:40.371Z,7.00
2019-05-12T06:13:09.934Z,6.90
2019-05-12T06:15:40.934Z,6.80
2019-05-12T06:18:10.035Z,6.90
2019-05-12T06:20:39.205Z,6.90
2019-05-12T06:23:08.329Z,7.00
2019-05-12T06:25:54.929Z,6.80
2019-05-12T06:28:09.019Z,6.80
2019-05-12T06:30:44.140Z,6.90
2019-05-12T06:33:09.407Z,6.80
2019-05-12T06:35:42.256Z,6.60
2019-05-12T06:38:09.428Z,6.40
2019-05-12T06:40:41.298Z,6.40
2019-05-12T06:43:10.467Z,6.50
2019-05-12T06:45:43.344Z,6.70
2019-05-12T06:48:10.522Z,6.70
2019-05-12T06:50:39.667Z,6.80
2019-05-12T06:53:08.840Z,6.80
2019-05-12T06:55:39.305Z,6.70
2019-05-12T06:58:08.716Z,6.80
2019-05-12T07:00:37.844Z,6.90
2019-05-12T07:03:06.999Z,6.80
2019-05-12T07:05:38.586Z,6.90
2019-05-12T07:08:06.989Z,6.90
2019-05-12T07:10:43.061Z,6.90
2019-05-12T07:13:07.007Z,7.10
2019-05-12T07:15:40.380Z,7.20
2019-05-12T07:18:17.227Z,7.30
2019-05-12T07:20:45.460Z,7.20
2019-05-12T07:23:19.800Z,7.10
2019-05-12T07:25:45.534Z,7.10
2019-05-12T07:28:16.994Z,7.00
2019-05-12T07:30:46.153Z,7.10
2019-05-12T07:33:15.324Z,7.20
2019-05-12T07:35:44.615Z,7.40
2019-05-12T07:38:20.864Z,7.40
2019-05-12T07:40:45.624Z,7.30
2019-05-12T07:43:20.353Z,7.40
2019-05-12T07:45:46.692Z,7.30
2019-05-12T07:48:15.895Z,6.90
2019-05-12T07:50:45.089Z,6.90
2019-05-12T07:53:14.618Z,7.00
2019-05-12T07:55:47.546Z,6.80
2019-05-12T07:58:18.691Z,6.80
2019-05-12T08:00:45.727Z,7.00
2019-05-12T08:03:21.013Z,7.10
2019-05-12T08:05:45.748Z,7.20
2019-05-12T08:08:15.081Z,7.40
2019-05-12T08:10:44.471Z,7.50
2019-05-12T08:13:14.871Z,7.40
2019-05-12T08:15:48.912Z,7.50
2019-05-12T08:18:15.543Z,7.40
2019-05-12T08:20:44.751Z,7.40
2019-05-12T08:23:14.354Z,7.40
2019-05-12T08:25:43.815Z,7.40
2019-05-12T08:28:18.198Z,7.30
2019-05-12T08:30:51.993Z,7.20
2019-05-12T08:33:15.276Z,7.30
2019-05-12T08:35:44.494Z,7.40
2019-05-12T08:38:14.551Z,7.30
2019-05-12T08:40:50.916Z,7.10
2019-05-12T08:43:15.107Z,7.30
2019-05-12T08:45:44.562Z,7.40
2019-05-12T08:48:21.538Z,7.40
2019-05-12T08:50:46.115Z,7.30
2019-05-12T08:53:20.704Z,7.40
2019-05-12T08:55:46.339Z,7.50
2019-05-12T08:58:30.114Z,7.40
2019-05-12T09:00:50.419Z,7.40
2019-05-12T09:03:20.487Z,7.50
2019-05-12T09:05:50.052Z,7.40
2019-05-12T09:08:19.283Z,7.40
2019-05-12T09:10:52.313Z,7.40
2019-05-12T09:13:20.413Z,7.50
2019-05-12T09:15:49.571Z,7.50
2019-05-12T09:18:20.379Z,7.50
2019-05-12T09:20:52.885Z,7.60
2019-05-12T09:23:20.452Z,7.60
2019-05-12T09:25:49.669Z,7.60
2019-05-12T09:28:18.850Z,7.60
2019-05-12T09:30:49.440Z,7.60
2019-05-12T09:33:21.521Z,7.50
2019-05-12T09:35:49.726Z,7.50
2019-05-12T09:38:24.058Z,7.50
2019-05-12T09:40:52.811Z,7.30
2019-05-12T09:43:20.796Z,7.40
2019-05-12T09:45:54.012Z,7.50
2019-05-12T09:48:20.976Z,7.60
2019-05-12T09:50:51.462Z,7.70
2019-05-12T09:53:23.550Z,7.70
2019-05-12T09:55:53.769Z,7.80
2019-05-12T09:58:25.083Z,7.80
2019-05-12T10:00:54.367Z,7.80
2019-05-12T10:03:24.274Z,7.90
2019-05-12T10:05:53.821Z,7.80
2019-05-12T10:08:24.209Z,7.80
2019-05-12T10:10:53.749Z,8.00
2019-05-12T10:13:28.087Z,8.00
2019-05-12T10:15:58.738Z,7.90
2019-05-12T10:18:24.872Z,8.00
2019-05-12T10:20:54.054Z,7.90
2019-05-12T10:23:27.261Z,8.00
2019-05-12T10:25:54.188Z,8.00
2019-05-12T10:28:23.869Z,8.10
2019-05-12T10:30:56.936Z,8.30
2019-05-12T10:33:25.602Z,8.40
2019-05-12T10:35:59.421Z,8.20
2019-05-12T10:38:25.752Z,8.30
2019-05-12T10:40:54.920Z,8.50
2019-05-12T10:43:24.478Z,8.60
2019-05-12T10:45:53.935Z,8.50
2019-05-12T10:48:23.448Z,8.60
2019-05-12T10:50:53.629Z,8.60
2019-05-12T10:53:23.484Z,8.60
2019-05-12T10:55:54.220Z,8.60
2019-05-12T10:58:24.862Z,8.60
2019-05-12T11:00:59.104Z,8.80
2019-05-12T11:03:25.225Z,9.00
2019-05-12T11:06:02.181Z,9.00
2019-05-12T11:08:25.392Z,8.90
2019-05-12T11:10:59.320Z,8.90
2019-05-12T11:13:25.612Z,8.90
2019-05-12T11:15:55.055Z,8.80
2019-05-12T11:18:30.283Z,8.80
2019-05-12T11:20:56.364Z,8.90
2019-05-12T11:23:29.755Z,8.80
2019-05-12T11:25:58.996Z,8.80
2019-05-12T11:28:28.316Z,8.70
2019-05-12T11:30:57.485Z,8.80
2019-05-12T11:33:26.731Z,8.80
2019-05-12T11:35:55.900Z,9.00
2019-05-12T11:38:25.179Z,9.10
2019-05-12T11:40:54.335Z,9.00
2019-05-12T11:43:24.828Z,8.90
2019-05-12T11:45:54.342Z,8.90
2019-05-12T11:48:23.802Z,8.90
2019-05-12T11:50:54.606Z,9.10
2019-05-12T11:53:30.329Z,9.40
2019-05-12T11:55:54.959Z,9.60
2019-05-12T11:58:24.119Z,9.70
2019-05-12T12:00:58.489Z,9.60
2019-05-12T12:03:25.949Z,9.40
2019-05-12T12:05:55.177Z,9.30
2019-05-12T12:08:26.209Z,9.20
2019-05-12T12:10:55.199Z,9.20
2019-05-12T12:13:28.246Z,9.20
2019-05-12T12:16:00.330Z,9.10
2019-05-12T12:18:26.129Z,9.10
2019-05-12T12:21:02.865Z,9.00
2019-05-12T12:23:26.267Z,8.90
2019-05-12T12:25:55.462Z,8.90
2019-05-12T12:28:24.657Z,8.90
2019-05-12T12:30:56.815Z,8.80
2019-05-12T12:33:24.744Z,8.90
2019-05-12T12:35:56.541Z,8.90
2019-05-12T12:38:24.787Z,9.00
2019-05-12T12:40:54.192Z,9.10
2019-05-12T12:43:24.834Z,9.10
2019-05-12T12:45:56.878Z,9.00
2019-05-12T12:48:29.809Z,9.00
2019-05-12T12:50:56.873Z,9.00
2019-05-12T12:53:27.647Z,9.10
2019-05-12T12:55:58.928Z,9.20
2019-05-12T12:58:31.265Z,9.10
2019-05-12T13:00:59.180Z,9.10
2019-05-12T13:03:29.948Z,9.20
2019-05-12T13:05:59.223Z,9.10
2019-05-12T13:08:29.438Z,9.20
2019-05-12T13:10:58.736Z,9.30
2019-05-12T13:13:27.980Z,9.40
2019-05-12T13:15:57.136Z,9.50
2019-05-12T13:18:33.186Z,9.60
2019-05-12T13:20:58.139Z,9.80
2019-05-12T13:23:36.806Z,9.90
2019-05-12T13:25:58.391Z,9.90
2019-05-12T13:28:27.581Z,10.00
2019-05-12T13:31:07.959Z,10.10
2019-05-12T13:33:27.861Z,10.10
2019-05-12T13:35:57.584Z,10.10
2019-05-12T13:38:30.414Z,10.10
2019-05-12T13:40:57.749Z,10.20
2019-05-12T13:43:26.985Z,10.10
2019-05-12T13:45:56.222Z,10.20
2019-05-12T13:48:25.564Z,10.40
2019-05-12T13:51:07.532Z,10.50
2019-05-12T13:53:25.578Z,10.70
2019-05-12T13:55:55.389Z,10.70
2019-05-12T13:58:28.360Z,10.80
2019-05-12T14:01:13.319Z,11.10
2019-05-12T14:03:28.061Z,11.00
2019-05-12T14:05:57.397Z,11.00
2019-05-12T14:08:26.534Z,11.10
2019-05-12T14:10:59.403Z,11.10
2019-05-12T14:13:26.706Z,11.20
2019-05-12T14:15:55.896Z,11.10
2019-05-12T14:18:25.058Z,10.80
2019-05-12T14:20:58.803Z,10.50
2019-05-12T14:23:25.170Z,10.50
2019-05-12T14:25:54.460Z,10.40
2019-05-12T14:28:23.798Z,10.10
2019-05-12T14:30:54.485Z,9.90
2019-05-12T14:33:24.675Z,10.00
2019-05-12T14:35:56.738Z,10.10
2019-05-12T14:38:29.607Z,10.20
2019-05-12T14:41:01.359Z,10.20
2019-05-12T14:43:28.051Z,10.20
2019-05-12T14:46:00.265Z,10.20
2019-05-12T14:48:28.193Z,10.20
2019-05-12T15:04:33.635Z,10.40
2019-05-12T15:07:08.051Z,10.20
2019-05-12T15:09:34.147Z,10.20
2019-05-12T15:12:04.477Z,10.20
2019-05-12T15:14:37.791Z,9.90
2019-05-12T15:17:04.581Z,9.80
2019-05-12T15:19:33.806Z,9.80
2019-05-12T15:22:07.650Z,9.70
2019-05-12T15:24:33.915Z,9.80
2019-05-12T15:27:03.875Z,9.70
2019-05-12T15:29:33.775Z,9.70
2019-05-12T15:32:04.028Z,9.70
2019-05-12T15:34:33.773Z,9.70
2019-05-12T15:37:04.127Z,9.70
2019-05-12T15:39:33.682Z,9.70
2019-05-12T15:42:03.555Z,9.70
2019-05-12T15:44:36.790Z,9.70
2019-05-12T15:47:04.892Z,9.80
2019-05-12T15:49:34.125Z,9.70
2019-05-12T15:52:03.657Z,9.90
2019-05-12T15:54:35.735Z,9.80
2019-05-12T15:57:04.300Z,9.80
2019-05-12T15:59:34.470Z,9.90
2019-05-12T16:02:11.990Z,10.00
2019-05-12T16:04:42.956Z,10.00
2019-05-12T16:07:06.756Z,10.10
2019-05-12T16:09:35.924Z,10.10
2019-05-12T16:12:09.479Z,10.20
2019-05-12T16:14:40.762Z,10.30
2019-05-12T16:17:07.032Z,10.30
2019-05-12T16:19:54.067Z,10.20
2019-05-12T16:22:24.390Z,10.10
2019-05-12T16:24:53.593Z,10.00
2019-05-12T16:27:24.902Z,9.90
2019-05-12T16:29:53.808Z,9.90
2019-05-12T16:32:27.095Z,10.00
2019-05-12T16:34:54.226Z,9.80
2019-05-12T16:37:31.049Z,9.60
2019-05-12T16:39:55.586Z,9.60
2019-05-12T16:42:24.848Z,9.60
2019-05-12T16:44:56.075Z,9.60
2019-05-12T16:47:29.101Z,9.50
2019-05-12T16:49:55.828Z,9.50
2019-05-12T16:52:25.082Z,9.40
2019-05-12T16:54:54.336Z,9.40
2019-05-12T16:57:23.545Z,9.40
2019-05-12T17:00:02.491Z,9.20
2019-05-12T17:02:38.410Z,9.20
2019-05-12T17:04:54.577Z,9.20
2019-05-12T17:07:27.000Z,9.30
2019-05-12T17:09:54.638Z,9.20
2019-05-12T17:12:31.863Z,9.30
2019-05-12T17:14:55.276Z,9.30
2019-05-12T17:17:24.746Z,9.20
2019-05-12T17:19:54.117Z,9.10
2019-05-12T17:22:23.963Z,9.00
2019-05-12T17:24:53.783Z,8.90
2019-05-12T17:27:25.103Z,9.00
2019-05-12T17:29:54.199Z,9.00
2019-05-12T17:32:23.895Z,8.90
2019-05-12T17:34:53.438Z,8.80
2019-05-12T17:37:23.882Z,8.70
2019-05-12T17:39:53.228Z,8.60
2019-05-12T17:42:26.708Z,8.70
2019-05-12T17:44:54.457Z,8.80
2019-05-12T17:47:26.388Z,8.90
2019-05-12T17:50:00.519Z,8.80
2019-05-12T17:52:27.759Z,8.80
2019-05-12T17:55:04.399Z,8.80
2019-05-12T17:57:28.250Z,8.80
2019-05-12T17:59:59.799Z,8.80
2019-05-12T18:02:29.018Z,8.90
2019-05-12T18:05:01.013Z,8.90
2019-05-12T18:07:29.134Z,8.80
2019-05-12T18:10:00.624Z,8.70
2019-05-12T18:12:38.253Z,8.60
2019-05-12T18:15:00.190Z,8.50
2019-05-12T18:17:29.374Z,8.40
2019-05-12T18:20:00.917Z,8.30
2019-05-12T18:22:29.657Z,8.30
2019-05-12T18:24:58.847Z,8.30
2019-05-12T18:27:28.016Z,8.30
2019-05-12T18:29:57.179Z,8.30
2019-05-12T18:32:26.353Z,8.20
2019-05-12T18:34:55.493Z,8.10
2019-05-12T18:37:24.670Z,8.00
2019-05-12T18:39:53.909Z,8.00
2019-05-12T18:42:24.622Z,8.00
2019-05-12T18:44:54.579Z,8.00
2019-05-12T18:47:31.762Z,8.00
2019-05-12T18:49:55.243Z,7.90
2019-05-12T18:52:29.194Z,7.90
2019-05-12T18:54:57.100Z,7.90
2019-05-12T18:57:26.655Z,7.90
2019-05-12T19:00:03.438Z,7.80
2019-05-12T19:02:28.488Z,7.80
2019-05-12T19:04:57.751Z,7.80
2019-05-12T19:07:39.411Z,7.90
2019-05-12T19:09:57.871Z,7.90
2019-05-12T19:12:32.376Z,7.90
2019-05-12T19:14:58.383Z,7.80
2019-05-12T19:17:27.673Z,7.80
2019-05-12T19:19:59.815Z,7.70
2019-05-12T19:22:27.677Z,7.80
2019-05-12T19:24:59.999Z,7.80
2019-05-12T19:27:27.752Z,7.80
2019-05-12T19:29:56.971Z,7.80
2019-05-12T19:32:27.956Z,7.70
2019-05-12T19:34:57.053Z,7.70
2019-05-12T19:37:29.791Z,7.70
2019-05-12T19:39:57.353Z,7.70
2019-05-12T19:42:28.289Z,7.80
2019-05-12T19:44:59.974Z,7.80
2019-05-12T19:47:34.466Z,7.80
2019-05-12T19:50:07.178Z,7.80
2019-05-12T19:52:30.923Z,7.80
2019-05-12T19:55:00.341Z,7.80
2019-05-12T19:57:29.686Z,7.70
2019-05-12T19:59:58.930Z,7.60
2019-05-12T20:02:28.155Z,7.50
2019-05-12T20:04:57.337Z,7.50
2019-05-12T20:07:26.501Z,7.40
2019-05-12T20:10:00.352Z,7.40
2019-05-12T20:12:27.827Z,7.30
2019-05-12T20:14:59.170Z,7.40
2019-05-12T20:17:30.344Z,7.40
2019-05-12T20:20:01.210Z,7.40
2019-05-12T20:22:30.385Z,7.40
2019-05-12T20:24:59.566Z,7.30
2019-05-12T20:27:28.731Z,7.30
2019-05-12T20:29:57.897Z,7.40
2019-05-12T20:32:27.078Z,7.40
2019-05-12T20:34:56.315Z,7.50
2019-05-12T20:37:25.459Z,7.50
2019-05-12T20:40:01.950Z,7.60
2019-05-12T20:42:27.119Z,7.60
2019-05-12T20:45:02.557Z,7.60
2019-05-12T20:47:28.841Z,7.60
2019-05-12T20:49:58.016Z,7.60
2019-05-12T20:52:27.172Z,7.60
2019-05-12T20:54:59.761Z,7.60
2019-05-12T20:57:27.225Z,7.70
2019-05-12T21:00:05.770Z,7.70
2019-05-12T21:02:29.504Z,7.70
2019-05-12T21:05:00.904Z,7.70
2019-05-12T21:07:33.604Z,7.70
2019-05-12T21:10:04.088Z,7.70
2019-05-12T21:12:40.224Z,7.70
2019-05-12T21:15:16.309Z,7.70
2019-05-12T21:17:43.005Z,7.70
2019-05-12T21:20:11.679Z,7.70
2019-05-12T21:22:39.433Z,7.80
2019-05-12T21:25:11.083Z,7.70
2019-05-12T21:27:43.918Z,7.70
2019-05-12T21:30:14.982Z,7.70
2019-05-12T21:32:47.103Z,7.80
2019-05-12T21:35:19.220Z,7.70
2019-05-12T21:37:46.297Z,7.70
2019-05-12T21:40:15.964Z,7.70
2019-05-12T21:42:45.148Z,7.70
2019-05-12T21:45:14.698Z,7.50
2019-05-12T21:47:47.472Z,7.40
2019-05-12T21:50:17.117Z,7.40
2019-05-12T21:52:46.274Z,7.50
2019-05-12T21:55:21.491Z,7.40
2019-05-12T21:57:46.484Z,7.40
2019-05-12T22:00:28.873Z,7.30
2019-05-12T22:03:02.538Z,7.30
2019-05-12T22:05:48.206Z,7.40
2019-05-12T22:08:06.151Z,7.40
2019-05-12T22:10:34.415Z,7.40
2019-05-12T22:13:12.158Z,7.40
2019-05-12T22:15:37.784Z,7.40
2019-05-12T22:18:07.002Z,7.30
2019-05-12T22:20:36.160Z,7.30
2019-05-12T22:23:11.590Z,7.30
2019-05-12T22:25:36.167Z,7.30
2019-05-12T22:28:09.768Z,7.30
2019-05-12T22:30:39.182Z,7.20
2019-05-12T22:33:10.629Z,7.30
2019-05-12T22:35:40.945Z,7.40
2019-05-12T22:38:19.342Z,7.50
2019-05-12T22:40:41.010Z,7.40
2019-05-12T22:43:10.206Z,7.50
2019-05-12T22:45:44.365Z,7.50
2019-05-12T22:48:10.388Z,7.50
2019-05-12T22:50:39.560Z,7.50
2019-05-12T22:53:08.725Z,7.50
2019-05-12T22:55:37.895Z,7.50
2019-05-12T22:58:10.565Z,7.50
2019-05-12T23:00:37.984Z,7.50
2019-05-12T23:03:11.545Z,7.40
2019-05-12T23:05:37.986Z,7.40
2019-05-12T23:08:08.522Z,7.40
2019-05-12T23:10:41.560Z,7.50
2019-05-12T23:13:08.671Z,7.50
2019-05-12T23:15:38.715Z,7.40
2019-05-12T23:18:08.717Z,7.40
2019-05-12T23:20:37.974Z,7.40
2019-05-12T23:23:09.101Z,7.40
2019-05-12T23:25:38.095Z,7.50
2019-05-12T23:28:10.417Z,7.50
2019-05-12T23:30:38.189Z,7.50
2019-05-12T23:33:07.351Z,7.60
2019-05-12T23:35:39.831Z,7.50
2019-05-12T23:38:10.551Z,7.40
2019-05-12T23:40:43.378Z,7.30
2019-05-12T23:43:14.575Z,7.30
2019-05-12T23:45:44.442Z,7.30
2019-05-12T23:48:14.930Z,7.30
2019-05-12T23:50:44.651Z,7.20
2019-05-12T23:53:15.465Z,7.10
2019-05-12T23:55:44.749Z,7.00
2019-05-12T23:58:15.007Z,7.00
